Osage River (Missouri), Tuscumbia (06926080)

StateMissouriCurrentPotential (9290 cfs)
RiverOsage RiverFlood - The river is flooding. Obstacles can be treacherous or deadly. The river should be avoided at this stage for casual trips and definitely for the inexperienced. Trips should be attempted only with protective gear and equipment.Flood(none)
Updated2019-10-14 3:00 (1 hour ago)High - The river is high and potentially dangerous, especially for the young and / or inexperienced. Normal stream obstacles are sometimes difficult to navigate. Extended distances can be attempted, but canoe travel may not be advisable.High(none)
Discharge9290 cfs (median: 3530 cfs)Good - Conditions are ideal for a canoe or kayak. Boats typically will drag on fewer than one-quarter of riffles, if at all, and portages are unnecessary or rare. Normal float lengths can be attempted without a problem.Good(none)
Height6.55 feetLow - River is low but can still be floated. Some riffles are okay but most come with significant dragging and might need a portage. Float lengths should be reduced to accommodate low flow, dragging, and portages.Low(none)
TrendFalling (rising over 24 hours)Poor - River is too low to float comfortably. Most or all riffles will drag or must be portaged and some obstacles (such as slick shelf rock) cause undue problems. Avoid the river at this stage for casual paddling trips.Poor(none)
USGSExternal icon USGS Site for Tuscumbia (06926080)LocationExternal icon Google Maps

Trending Data

Plot Image
ObservationHeightDischargeMaximum
Discharge
Minimum
Discharge
Mean
Discharge
P05P10P20P25P50
(Median)
P75P80P90P95
2019-10-14 03:00 6.55 9290 23300 (2017) 1140 (2016) 7880 1140 1240 3530 18900 23300
2019-10-14 02:00 6.60 9400 23300 (2017) 1140 (2016) 7880 1140 1240 3530 18900 23300
2019-10-14 01:00 6.82 9920 23300 (2017) 1140 (2016) 7880 1140 1240 3530 18900 23300
2019-10-14 00:00 7.08 10500 23300 (2017) 1140 (2016) 7880 1140 1240 3530 18900 23300
2019-10-13 23:00 7.15 10700 21100 (2017) 1130 (2016) 9090 1130 1340 7080 18900 21100
2019-10-13 22:00 6.73 9710 21100 (2017) 1130 (2016) 9090 1130 1340 7080 18900 21100
2019-10-13 21:00 5.86 7760 21100 (2017) 1130 (2016) 9090 1130 1340 7080 18900 21100
2019-10-13 20:00 5.15 6320 21100 (2017) 1130 (2016) 9090 1130 1340 7080 18900 21100
2019-10-13 19:00 5.10 6220 21100 (2017) 1130 (2016) 9090 1130 1340 7080 18900 21100
2019-10-13 18:00 4.95 5940 21100 (2017) 1130 (2016) 9090 1130 1340 7080 18900 21100
2019-10-13 17:00 4.45 5050 21100 (2017) 1130 (2016) 9090 1130 1340 7080 18900 21100
2019-10-13 16:00 3.75 3880 21100 (2017) 1130 (2016) 9090 1130 1340 7080 18900 21100
2019-10-13 15:00 3.38 3320 21100 (2017) 1130 (2016) 9090 1130 1340 7080 18900 21100
2019-10-13 14:00 3.33 3250 21100 (2017) 1130 (2016) 9090 1130 1340 7080 18900 21100
2019-10-13 13:00 3.42 3380 21100 (2017) 1130 (2016) 9090 1130 1340 7080 18900 21100
2019-10-13 12:00 3.51 3500 21100 (2017) 1130 (2016) 9090 1130 1340 7080 18900 21100
2019-10-13 11:00 3.63 3680 21100 (2017) 1130 (2016) 9090 1130 1340 7080 18900 21100
2019-10-13 10:00 3.74 3860 21100 (2017) 1130 (2016) 9090 1130 1340 7080 18900 21100
2019-10-13 09:00 3.86 4070 21100 (2017) 1130 (2016) 9090 1130 1340 7080 18900 21100
2019-10-13 08:00 4.00 4320 21100 (2017) 1130 (2016) 9090 1130 1340 7080 18900 21100
2019-10-13 07:00 4.16 4590 21100 (2017) 1130 (2016) 9090 1130 1340 7080 18900 21100
2019-10-13 06:00 4.35 4890 21100 (2017) 1130 (2016) 9090 1130 1340 7080 18900 21100
2019-10-13 05:00 4.55 5220 21100 (2017) 1130 (2016) 9090 1130 1340 7080 18900 21100
2019-10-13 04:00 4.78 5620 21100 (2017) 1130 (2016) 9090 1130 1340 7080 18900 21100
2019-10-13 03:00 5.04 6110 21100 (2017) 1130 (2016) 9090 1130 1340 7080 18900 21100
2019-10-13 02:00 5.32 6650 21100 (2017) 1130 (2016) 9090 1130 1340 7080 18900 21100
2019-10-13 01:00 5.61 7240 21100 (2017) 1130 (2016) 9090 1130 1340 7080 18900 21100
2019-10-13 00:00 5.90 7850 21100 (2017) 1130 (2016) 9090 1130 1340 7080 18900 21100
2019-10-12 23:00 6.17 8440 22500 (2017) 1110 (2016) 6900 1110 1110 2000 17600 22500
2019-10-12 22:00 6.37 8880 22500 (2017) 1110 (2016) 6900 1110 1110 2000 17600 22500
2019-10-12 21:00 6.39 8930 22500 (2017) 1110 (2016) 6900 1110 1110 2000 17600 22500
2019-10-12 20:00 6.15 8390 22500 (2017) 1110 (2016) 6900 1110 1110 2000 17600 22500
2019-10-12 19:00 5.92 7890 22500 (2017) 1110 (2016) 6900 1110 1110 2000 17600 22500
2019-10-12 18:00 5.54 7090 22500 (2017) 1110 (2016) 6900 1110 1110 2000 17600 22500
2019-10-12 17:00 5.34 6690 22500 (2017) 1110 (2016) 6900 1110 1110 2000 17600 22500
2019-10-12 16:00 5.39 6790 22500 (2017) 1110 (2016) 6900 1110 1110 2000 17600 22500
2019-10-12 15:00 5.60 7220 22500 (2017) 1110 (2016) 6900 1110 1110 2000 17600 22500
2019-10-12 14:00 5.92 7890 22500 (2017) 1110 (2016) 6900 1110 1110 2000 17600 22500
2019-10-12 13:00 6.28 8680 22500 (2017) 1110 (2016) 6900 1110 1110 2000 17600 22500
2019-10-12 12:00 6.61 9430 22500 (2017) 1110 (2016) 6900 1110 1110 2000 17600 22500
2019-10-12 11:00 6.99 10300 22500 (2017) 1110 (2016) 6900 1110 1110 2000 17600 22500
2019-10-12 10:00 7.48 11500 22500 (2017) 1110 (2016) 6900 1110 1110 2000 17600 22500
2019-10-12 09:00 8.07 13000 22500 (2017) 1110 (2016) 6900 1110 1110 2000 17600 22500
2019-10-12 08:00 8.71 14700 22500 (2017) 1110 (2016) 6900 1110 1110 2000 17600 22500
2019-10-12 07:00 9.41 16700 22500 (2017) 1110 (2016) 6900 1110 1110 2000 17600 22500
2019-10-12 06:00 10.17 19000 22500 (2017) 1110 (2016) 6900 1110 1110 2000 17600 22500
2019-10-12 05:00 11.01 21300 22500 (2017) 1110 (2016) 6900 1110 1110 2000 17600 22500
2019-10-12 04:00 11.92 23800 22500 (2017) 1110 (2016) 6900 1110 1110 2000 17600 22500
2019-10-12 03:00 12.92 26600 22500 (2017) 1110 (2016) 6900 1110 1110 2000 17600 22500
2019-10-12 02:00 13.95 29600 22500 (2017) 1110 (2016) 6900 1110 1110 2000 17600 22500
2019-10-12 01:00 14.93 32600 22500 (2017) 1110 (2016) 6900 1110 1110 2000 17600 22500
2019-10-12 00:00 15.41 34100 22500 (2017) 1110 (2016) 6900 1110 1110 2000 17600 22500
2019-10-11 23:00 15.53 34500 18700 (2017) 1080 (2016) 6850 1080 1140 3820 15600 18700
2019-10-11 22:00 15.42 34100 18700 (2017) 1080 (2016) 6850 1080 1140 3820 15600 18700
2019-10-11 21:00 15.20 33400 18700 (2017) 1080 (2016) 6850 1080 1140 3820 15600 18700
2019-10-11 20:00 14.94 32600 18700 (2017) 1080 (2016) 6850 1080 1140 3820 15600 18700
2019-10-11 19:00 14.63 31700 18700 (2017) 1080 (2016) 6850 1080 1140 3820 15600 18700
2019-10-11 18:00 14.28 30600 18700 (2017) 1080 (2016) 6850 1080 1140 3820 15600 18700
2019-10-11 17:00 13.87 29400 18700 (2017) 1080 (2016) 6850 1080 1140 3820 15600 18700
2019-10-11 16:00 13.54 28400 18700 (2017) 1080 (2016) 6850 1080 1140 3820 15600 18700
2019-10-11 15:00 13.51 28300 18700 (2017) 1080 (2016) 6850 1080 1140 3820 15600 18700
2019-10-11 14:00 13.01 26900 18700 (2017) 1080 (2016) 6850 1080 1140 3820 15600 18700
2019-10-11 13:00 12.64 25800 18700 (2017) 1080 (2016) 6850 1080 1140 3820 15600 18700
2019-10-11 12:00 12.84 26400 18700 (2017) 1080 (2016) 6850 1080 1140 3820 15600 18700
2019-10-11 11:00 12.94 26700 18700 (2017) 1080 (2016) 6850 1080 1140 3820 15600 18700
2019-10-11 10:00 13.01 26900 18700 (2017) 1080 (2016) 6850 1080 1140 3820 15600 18700
2019-10-11 09:00 13.07 27000 18700 (2017) 1080 (2016) 6850 1080 1140 3820 15600 18700
2019-10-11 08:00 13.19 27400 18700 (2017) 1080 (2016) 6850 1080 1140 3820 15600 18700
2019-10-11 07:00 13.59 28600 18700 (2017) 1080 (2016) 6850 1080 1140 3820 15600 18700
2019-10-11 06:00 14.02 29800 18700 (2017) 1080 (2016) 6850 1080 1140 3820 15600 18700
2019-10-11 05:00 14.46 31200 18700 (2017) 1080 (2016) 6850 1080 1140 3820 15600 18700
2019-10-11 04:00 14.66 31800 18700 (2017) 1080 (2016) 6850 1080 1140 3820 15600 18700
2019-10-11 03:00 14.96 32700 18700 (2017) 1080 (2016) 6850 1080 1140 3820 15600 18700
2019-10-11 02:00 15.02 32900 18700 (2017) 1080 (2016) 6850 1080 1140 3820 15600 18700
2019-10-11 01:00 15.00 32800 18700 (2017) 1080 (2016) 6850 1080 1140 3820 15600 18700
2019-10-11 00:00 14.77 32100 18700 (2017) 1080 (2016) 6850 1080 1140 3820 15600 18700
2019-10-10 23:00 14.01 29800 12200 (2019) 1090 (2016) 7620 1090 2290 8590 12000 12200
2019-10-10 22:00 12.63 25800 12200 (2019) 1090 (2016) 7620 1090 2290 8590 12000 12200
2019-10-10 21:00 11.60 22900 12200 (2019) 1090 (2016) 7620 1090 2290 8590 12000 12200
2019-10-10 20:00 11.00 21200 12200 (2019) 1090 (2016) 7620 1090 2290 8590 12000 12200
2019-10-10 19:00 10.67 20300 12200 (2019) 1090 (2016) 7620 1090 2290 8590 12000 12200
2019-10-10 18:00 10.47 19800 12200 (2019) 1090 (2016) 7620 1090 2290 8590 12000 12200
2019-10-10 17:00 10.46 19800 12200 (2019) 1090 (2016) 7620 1090 2290 8590 12000 12200
2019-10-10 16:00 10.85 20800 12200 (2019) 1090 (2016) 7620 1090 2290 8590 12000 12200
2019-10-10 15:00 11.18 21700 12200 (2019) 1090 (2016) 7620 1090 2290 8590 12000 12200
2019-10-10 14:00 11.32 22100 12200 (2019) 1090 (2016) 7620 1090 2290 8590 12000 12200
2019-10-10 13:00 11.34 22200 12200 (2019) 1090 (2016) 7620 1090 2290 8590 12000 12200
2019-10-10 12:00 10.96 21100 12200 (2019) 1090 (2016) 7620 1090 2290 8590 12000 12200
2019-10-10 11:00 10.59 20100 12200 (2019) 1090 (2016) 7620 1090 2290 8590 12000 12200
2019-10-10 10:00 10.08 18700 12200 (2019) 1090 (2016) 7620 1090 2290 8590 12000 12200
2019-10-10 09:00 9.68 17500 12200 (2019) 1090 (2016) 7620 1090 2290 8590 12000 12200
2019-10-10 08:00 9.44 16800 12200 (2019) 1090 (2016) 7620 1090 2290 8590 12000 12200
2019-10-10 07:00 9.23 16200 12200 (2019) 1090 (2016) 7620 1090 2290 8590 12000 12200
2019-10-10 06:00 9.38 16600 12200 (2019) 1090 (2016) 7620 1090 2290 8590 12000 12200
2019-10-10 05:00 9.95 18300 12200 (2019) 1090 (2016) 7620 1090 2290 8590 12000 12200
2019-10-10 04:00 10.80 20700 12200 (2019) 1090 (2016) 7620 1090 2290 8590 12000 12200
2019-10-10 03:00 11.64 23000 12200 (2019) 1090 (2016) 7620 1090 2290 8590 12000 12200
2019-10-10 02:00 12.35 25000 12200 (2019) 1090 (2016) 7620 1090 2290 8590 12000 12200
2019-10-10 01:00 12.54 25500 12200 (2019) 1090 (2016) 7620 1090 2290 8590 12000 12200
2019-10-10 00:00 12.73 26100 12200 (2019) 1090 (2016) 7620 1090 2290 8590 12000 12200
2019-10-09 23:00 12.90 26500 13700 (2019) 1280 (2017) 7190 1280 1520 6880 13200 13700
2019-10-09 22:00 12.73 26100 13700 (2019) 1280 (2017) 7190 1280 1520 6880 13200 13700
2019-10-09 21:00 12.55 25500 13700 (2019) 1280 (2017) 7190 1280 1520 6880 13200 13700
2019-10-09 20:00 12.50 25400 13700 (2019) 1280 (2017) 7190 1280 1520 6880 13200 13700
2019-10-09 19:00 12.29 24800 13700 (2019) 1280 (2017) 7190 1280 1520 6880 13200 13700
2019-10-09 18:00 12.04 24100 13700 (2019) 1280 (2017) 7190 1280 1520 6880 13200 13700
2019-10-09 17:00 11.66 23000 13700 (2019) 1280 (2017) 7190 1280 1520 6880 13200 13700
2019-10-09 16:00 11.41 22300 13700 (2019) 1280 (2017) 7190 1280 1520 6880 13200 13700
2019-10-09 15:00 10.98 21200 13700 (2019) 1280 (2017) 7190 1280 1520 6880 13200 13700
2019-10-09 14:00 10.33 19400 13700 (2019) 1280 (2017) 7190 1280 1520 6880 13200 13700
2019-10-09 13:00 9.52 17100 13700 (2019) 1280 (2017) 7190 1280 1520 6880 13200 13700
2019-10-09 12:00 8.46 14100 13700 (2019) 1280 (2017) 7190 1280 1520 6880 13200 13700
2019-10-09 11:00 7.14 10700 13700 (2019) 1280 (2017) 7190 1280 1520 6880 13200 13700
2019-10-09 10:00 5.71 7450 13700 (2019) 1280 (2017) 7190 1280 1520 6880 13200 13700
2019-10-09 09:00 5.16 6330 13700 (2019) 1280 (2017) 7190 1280 1520 6880 13200 13700
2019-10-09 08:00 5.18 6370 13700 (2019) 1280 (2017) 7190 1280 1520 6880 13200 13700
2019-10-09 07:00 5.45 6910 13700 (2019) 1280 (2017) 7190 1280 1520 6880 13200 13700
2019-10-09 06:00 5.75 7530 13700 (2019) 1280 (2017) 7190 1280 1520 6880 13200 13700
2019-10-09 05:00 6.06 8190 13700 (2019) 1280 (2017) 7190 1280 1520 6880 13200 13700
2019-10-09 04:00 6.31 8750 13700 (2019) 1280 (2017) 7190 1280 1520 6880 13200 13700
2019-10-09 03:00 6.46 9080 13700 (2019) 1280 (2017) 7190 1280 1520 6880 13200 13700
2019-10-09 02:00 6.55 9290 13700 (2019) 1280 (2017) 7190 1280 1520 6880 13200 13700
2019-10-09 01:00 6.92 10200 13700 (2019) 1280 (2017) 7190 1280 1520 6880 13200 13700
2019-10-09 00:00 7.39 11300 13700 (2019) 1280 (2017) 7190 1280 1520 6880 13200 13700
2019-10-08 23:00 7.86 12500 8860 (2019) 1290 (2017) 3450 1290 1340 1830 7200 8860
2019-10-08 22:00 8.26 13500 8860 (2019) 1290 (2017) 3450 1290 1340 1830 7200 8860
2019-10-08 21:00 8.45 14000 8860 (2019) 1290 (2017) 3450 1290 1340 1830 7200 8860
2019-10-08 20:00 8.23 13400 8860 (2019) 1290 (2017) 3450 1290 1340 1830 7200 8860
2019-10-08 19:00 7.86 12500 8860 (2019) 1290 (2017) 3450 1290 1340 1830 7200 8860
2019-10-08 18:00 7.34 11200 8860 (2019) 1290 (2017) 3450 1290 1340 1830 7200 8860
2019-10-08 17:00 6.77 9800 8860 (2019) 1290 (2017) 3450 1290 1340 1830 7200 8860
2019-10-08 16:00 6.24 8590 8860 (2019) 1290 (2017) 3450 1290 1340 1830 7200 8860
2019-10-08 15:00 5.83 7700 8860 (2019) 1290 (2017) 3450 1290 1340 1830 7200 8860
2019-10-08 14:00 5.47 6950 8860 (2019) 1290 (2017) 3450 1290 1340 1830 7200 8860
2019-10-08 13:00 5.03 6090 8860 (2019) 1290 (2017) 3450 1290 1340 1830 7200 8860
2019-10-08 12:00 4.99 6010 8860 (2019) 1290 (2017) 3450 1290 1340 1830 7200 8860
2019-10-08 11:00 5.24 6490 8860 (2019) 1290 (2017) 3450 1290 1340 1830 7200 8860
2019-10-08 10:00 5.55 7120 8860 (2019) 1290 (2017) 3450 1290 1340 1830 7200 8860
2019-10-08 09:00 5.89 7830 8860 (2019) 1290 (2017) 3450 1290 1340 1830 7200 8860
2019-10-08 08:00 6.27 8660 8860 (2019) 1290 (2017) 3450 1290 1340 1830 7200 8860
2019-10-08 07:00 6.69 9610 8860 (2019) 1290 (2017) 3450 1290 1340 1830 7200 8860
2019-10-08 06:00 7.17 10800 8860 (2019) 1290 (2017) 3450 1290 1340 1830 7200 8860
2019-10-08 05:00 7.71 12100 8860 (2019) 1290 (2017) 3450 1290 1340 1830 7200 8860
2019-10-08 04:00 8.28 13600 8860 (2019) 1290 (2017) 3450 1290 1340 1830 7200 8860
2019-10-08 03:00 8.93 15400 8860 (2019) 1290 (2017) 3450 1290 1340 1830 7200 8860
2019-10-08 02:00 9.62 17300 8860 (2019) 1290 (2017) 3450 1290 1340 1830 7200 8860
2019-10-08 01:00 10.36 19500 8860 (2019) 1290 (2017) 3450 1290 1340 1830 7200 8860
2019-10-08 00:00 11.14 21600 8860 (2019) 1290 (2017) 3450 1290 1340 1830 7200 8860
2019-10-07 23:00 11.84 23500 5910 (2017) 1080 (2016) 3370 1080 1370 3250 5500 5910
2019-10-07 22:00 12.16 24400 5910 (2017) 1080 (2016) 3370 1080 1370 3250 5500 5910
2019-10-07 21:00 11.69 23100 5910 (2017) 1080 (2016) 3370 1080 1370 3250 5500 5910
2019-10-07 20:00 11.09 21500 5910 (2017) 1080 (2016) 3370 1080 1370 3250 5500 5910
2019-10-07 19:00 10.72 20500 5910 (2017) 1080 (2016) 3370 1080 1370 3250 5500 5910
2019-10-07 18:00 10.80 20700 5910 (2017) 1080 (2016) 3370 1080 1370 3250 5500 5910
2019-10-07 17:00 11.20 21800 5910 (2017) 1080 (2016) 3370 1080 1370 3250 5500 5910
2019-10-07 16:00 11.46 22500 5910 (2017) 1080 (2016) 3370 1080 1370 3250 5500 5910
2019-10-07 15:00 11.49 22600 5910 (2017) 1080 (2016) 3370 1080 1370 3250 5500 5910
2019-10-07 14:00 11.20 21800 5910 (2017) 1080 (2016) 3370 1080 1370 3250 5500 5910
2019-10-07 13:00 10.28 19300 5910 (2017) 1080 (2016) 3370 1080 1370 3250 5500 5910
2019-10-07 12:00 8.82 15100 5910 (2017) 1080 (2016) 3370 1080 1370 3250 5500 5910
2019-10-07 11:00 6.63 9470 5910 (2017) 1080 (2016) 3370 1080 1370 3250 5500 5910
2019-10-07 10:00 3.92 4180 5910 (2017) 1080 (2016) 3370 1080 1370 3250 5500 5910
2019-10-07 09:00 3.16 3020 5910 (2017) 1080 (2016) 3370 1080 1370 3250 5500 5910
2019-10-07 08:00 3.14 2990 5910 (2017) 1080 (2016) 3370 1080 1370 3250 5500 5910
2019-10-07 07:00 3.14 2990 5910 (2017) 1080 (2016) 3370 1080 1370 3250 5500 5910
2019-10-07 06:00 3.15 3000 5910 (2017) 1080 (2016) 3370 1080 1370 3250 5500 5910
2019-10-07 05:00 3.15 3000 5910 (2017) 1080 (2016) 3370 1080 1370 3250 5500 5910
2019-10-07 04:00 3.15 3000 5910 (2017) 1080 (2016) 3370 1080 1370 3250 5500 5910
2019-10-07 03:00 3.15 3000 5910 (2017) 1080 (2016) 3370 1080 1370 3250 5500 5910
2019-10-07 02:00 3.16 3020 5910 (2017) 1080 (2016) 3370 1080 1370 3250 5500 5910
2019-10-07 01:00 3.16 3020 5910 (2017) 1080 (2016) 3370 1080 1370 3250 5500 5910
2019-10-07 00:00 3.16 3020 5910 (2017) 1080 (2016) 3370 1080 1370 3250 5500 5910

A total of 172 rows are displayed for years 2016 through 2019.

Trips for Osage River (Missouri), Tuscumbia (06926080)

DateStartEndDistanceConditionDischargeHeightFishingDetails

A total of 0 rows are displayed.

Condition Descriptions

Fishing Conditions

Fish Species

Notes

Classic Trip List

The classic River Trips application is still available for use. It is updated with the new system using a data retrofit. It is no longer maintained. The original River Trips application is no longer updated (as of 1 Dec 2016) but can be checked for errors or for the condition of the data before it was converted to the new system.